Portada
METAR-TAF:

METAR-TAF

Aeroports :

Ağrı, Turquia

latitud: 39-39-16N, longitud: 43-01-38E, altitud: 1665 m

Observació

L'informe es va fer fa 30 minuts, a les 07:50 UTC
Vent 6 kt del Oest/Sud-Oest, variant entre Sud/Sud-Oest i Nord-Oest
Temperatura 4°C
Humitat 81%
Pressió 1005 hPa
Visibilitat 10 km o més
Escasses núvols a una alçada de 2500 ft, Cumulonimbus.
Cel ennuvolat a una alçada de 3500 ft

METAR: LTCO 300750Z 25006KT 200V320 9999 FEW025CB BKN035 04/01 Q1005

Hora: 11:20 (08:20 UTC)

Pronòstic

L'informe es va fer fa 3 hores i 40 minuts, a les 04:40 UTC
Pronòstic vàlid del 30 a les 06 UTC al 30 a les 15 UTC
Vent 2 kt amb direcció variable
Visibilitat 10 km o més
Cel ennuvolat a una alçada de 3500 ft
Cel ennuvolat a una alçada de 7000 ft
Probabilitat 30% :
Temporalment
l' 30 a les 12 UTC al 30 a les 15 UTC
pluja

TAF: LTCO 300440Z 3006/3015 VRB02KT 9999 BKN035 BKN070 PROB30 TEMPO 3012/3015 -RA

Observacions i pronòstics meteorològics de més de 4000 aeroports (METAR i TAF).

Les estacions disponibles són els punts grocs i vermells al mapa.

Posi el ratolí al punt desitjat per veure el nom de l'estació.

Feu clic per veure les observacions i els pronòstics meteorològics.

Per canviar el mapa: feu clic els botons verds amb una creu de color negre per apropar; al botó verd amb un guió per allunyar la imatge; o en les fletxes verdes per a mapes adjacents.


METAR-TAF: